createdAt,value
2018-01-22T00:00:09.665Z,0
2018-01-22T00:01:09.630Z,0
2018-01-22T00:02:09.896Z,0
2018-01-22T00:03:10.129Z,0
2018-01-22T00:04:09.857Z,0
2018-01-22T00:05:09.277Z,0
2018-01-22T00:06:09.813Z,0
2018-01-22T00:07:09.530Z,0
2018-01-22T00:08:09.498Z,0
2018-01-22T00:09:09.205Z,0
2018-01-22T00:10:09.450Z,0
2018-01-22T00:11:09.694Z,0
2018-01-22T00:12:09.405Z,0
2018-01-22T00:13:09.153Z,0
2018-01-22T00:14:09.365Z,0
2018-01-22T00:15:09.372Z,0
2018-01-22T00:16:09.324Z,0
2018-01-22T00:17:09.302Z,0
2018-01-22T00:18:09.296Z,0
2018-01-22T00:19:08.994Z,0
2018-01-22T00:20:08.992Z,0
2018-01-22T00:21:09.222Z,0
2018-01-22T00:22:09.199Z,0
2018-01-22T00:23:09.184Z,0
2018-01-22T00:24:09.180Z,0
2018-01-22T00:25:09.140Z,0
2018-01-22T00:26:09.408Z,0
2018-01-22T00:27:09.365Z,0
2018-01-22T00:28:08.811Z,0
2018-01-22T00:29:09.079Z,0
2018-01-22T00:30:09.037Z,0
2018-01-22T00:31:09.025Z,0
2018-01-22T00:32:09.015Z,0
2018-01-22T00:33:08.974Z,0
2018-01-22T00:34:08.901Z,0
2018-01-22T00:35:08.938Z,0
2018-01-22T00:36:09.257Z,0
2018-01-22T00:37:08.627Z,0
2018-01-22T00:38:08.872Z,0
2018-01-22T00:39:08.582Z,0
2018-01-22T00:40:08.834Z,0
2018-01-22T00:41:08.818Z,0
2018-01-22T00:42:08.799Z,0
2018-01-22T00:43:08.790Z,0
2018-01-22T00:44:08.775Z,0
2018-01-22T00:45:08.461Z,0
2018-01-22T00:46:09.002Z,0
2018-01-22T00:47:08.960Z,0
2018-01-22T00:48:08.689Z,0
2018-01-22T00:49:08.394Z,0
2018-01-22T00:50:08.361Z,0
2018-01-22T00:51:08.342Z,0
2018-01-22T00:52:08.592Z,0
2018-01-22T00:53:08.574Z,0
2018-01-22T00:54:08.553Z,0
2018-01-22T00:55:08.564Z,0
2018-01-22T00:56:08.239Z,0
2018-01-22T00:57:08.500Z,0
2018-01-22T00:58:08.199Z,0
2018-01-22T00:59:08.450Z,0
2018-01-22T01:00:08.163Z,0
2018-01-22T01:01:08.428Z,0
2018-01-22T01:02:08.392Z,0
2018-01-22T01:03:08.374Z,0
2018-01-22T01:04:08.094Z,0
2018-01-22T01:05:08.355Z,0
2018-01-22T01:06:08.315Z,0
2018-01-22T01:07:08.015Z,0
2018-01-22T01:08:08.270Z,0
2018-01-22T01:09:08.793Z,0
2018-01-22T01:10:07.958Z,0
2018-01-22T01:11:08.479Z,0
2018-01-22T01:12:08.473Z,0
2018-01-22T01:13:08.191Z,0
2018-01-22T01:14:07.887Z,0
2018-01-22T01:15:08.131Z,0
2018-01-22T01:16:08.115Z,0
2018-01-22T01:17:08.089Z,0
2018-01-22T01:18:07.808Z,0
2018-01-22T01:19:08.322Z,0
2018-01-22T01:20:07.760Z,0
2018-01-22T01:21:08.288Z,0
2018-01-22T01:22:08.265Z,0
2018-01-22T01:23:07.971Z,0
2018-01-22T01:24:08.387Z,0
2018-01-22T01:25:07.928Z,0
2018-01-22T01:26:07.910Z,0
2018-01-22T01:27:07.621Z,0
2018-01-22T01:28:07.866Z,0
2018-01-22T01:29:07.586Z,0
2018-01-22T01:30:08.137Z,0
2018-01-22T01:31:08.357Z,0
2018-01-22T01:32:07.521Z,0
2018-01-22T01:33:07.503Z,0
2018-01-22T01:34:08.023Z,0
2018-01-22T01:35:07.731Z,0
2018-01-22T01:36:07.707Z,0
2018-01-22T01:37:07.419Z,0
2018-01-22T01:38:07.406Z,0
2018-01-22T01:39:07.668Z,0
2018-01-22T01:40:07.633Z,0
2018-01-22T01:41:07.881Z,0
2018-01-22T01:42:07.606Z,0
2018-01-22T01:43:07.300Z,0
2018-01-22T01:44:07.555Z,0
2018-01-22T01:45:08.115Z,0
2018-01-22T01:46:07.239Z,0
2018-01-22T01:47:07.493Z,0
2018-01-22T01:48:07.212Z,0
2018-01-22T01:49:07.483Z,0
2018-01-22T01:50:07.436Z,0
2018-01-22T01:51:07.142Z,0
2018-01-22T01:52:07.393Z,0
2018-01-22T01:53:07.105Z,0
2018-01-22T01:54:07.352Z,0
2018-01-22T01:55:07.629Z,0
2018-01-22T01:56:07.417Z,0
2018-01-22T01:57:07.293Z,0
2018-01-22T01:58:07.283Z,0
2018-01-22T01:59:07.184Z,0
2018-01-22T02:00:07.250Z,0
2018-01-22T02:01:07.238Z,0
2018-01-22T02:02:07.206Z,0
2018-01-22T02:03:06.905Z,0
2018-01-22T02:04:07.423Z,0
2018-01-22T02:05:07.135Z,0
2018-01-22T02:06:07.131Z,0
2018-01-22T02:07:06.844Z,0
2018-01-22T02:08:07.669Z,0
2018-01-22T02:09:06.829Z,0
2018-01-22T02:10:07.105Z,0
2018-01-22T02:11:06.858Z,0
2018-01-22T02:12:07.302Z,0
2018-01-22T02:13:06.778Z,0
2018-01-22T02:14:06.973Z,0
2018-01-22T02:15:06.956Z,0
2018-01-22T02:16:07.236Z,0
2018-01-22T02:17:06.629Z,0
2018-01-22T02:18:07.199Z,0
2018-01-22T02:19:06.586Z,0
2018-01-22T02:20:06.848Z,0
2018-01-22T02:21:06.548Z,0
2018-01-22T02:22:07.070Z,0
2018-01-22T02:23:06.784Z,0
2018-01-22T02:24:07.057Z,0
2018-01-22T02:25:06.764Z,0
2018-01-22T02:26:07.002Z,0
2018-01-22T02:27:06.699Z,0
2018-01-22T02:28:06.681Z,0
2018-01-22T02:29:06.661Z,0
2018-01-22T02:30:06.686Z,0
2018-01-22T02:31:06.900Z,0
2018-01-22T02:32:06.331Z,0
2018-01-22T02:33:06.322Z,0
2018-01-22T02:34:06.292Z,0
2018-01-22T02:35:06.814Z,0
2018-01-22T02:36:06.548Z,0
2018-01-22T02:37:06.773Z,0
2018-01-22T02:38:06.756Z,0
2018-01-22T02:39:06.463Z,0
2018-01-22T02:40:06.219Z,0
2018-01-22T02:41:06.163Z,0
2018-01-22T02:42:06.161Z,0
2018-01-22T02:43:06.405Z,0
2018-01-22T02:44:06.646Z,0
2018-01-22T02:45:06.351Z,0
2018-01-22T02:46:06.333Z,0
2018-01-22T02:47:06.577Z,0
2018-01-22T02:48:06.332Z,0
2018-01-22T02:49:06.267Z,0
2018-01-22T02:50:06.521Z,0
2018-01-22T02:51:06.510Z,0
2018-01-22T02:52:06.216Z,0
2018-01-22T02:53:05.923Z,0
2018-01-22T02:54:05.899Z,0
2018-01-22T02:55:05.883Z,0
2018-01-22T02:56:05.858Z,0
2018-01-22T02:57:05.852Z,0
2018-01-22T02:58:06.367Z,0
2018-01-22T02:59:06.345Z,0
2018-01-22T03:00:06.591Z,0
2018-01-22T03:01:06.300Z,0
2018-01-22T03:02:06.033Z,0
2018-01-22T03:03:05.990Z,0
2018-01-22T03:04:06.516Z,0
2018-01-22T03:05:05.681Z,0
2018-01-22T03:06:06.238Z,0
2018-01-22T03:07:06.189Z,0
2018-01-22T03:08:05.895Z,0
2018-01-22T03:09:06.167Z,0
2018-01-22T03:10:05.865Z,0
2018-01-22T03:11:05.580Z,0
2018-01-22T03:12:05.543Z,0
2018-01-22T03:13:05.792Z,0
2018-01-22T03:14:06.051Z,0
2018-01-22T03:15:05.493Z,0
2018-01-22T03:16:05.756Z,0
2018-01-22T03:17:05.999Z,0
2018-01-22T03:18:05.720Z,0
2018-01-22T03:19:05.719Z,0
2018-01-22T03:20:05.930Z,0
2018-01-22T03:21:05.383Z,0
2018-01-22T03:22:05.883Z,0
2018-01-22T03:23:05.602Z,0
2018-01-22T03:24:05.847Z,0
2018-01-22T03:25:05.301Z,0
2018-01-22T03:26:05.550Z,0
2018-01-22T03:27:05.517Z,0
2018-01-22T03:28:05.516Z,0
2018-01-22T03:29:05.227Z,0
2018-01-22T03:30:05.470Z,0
2018-01-22T03:31:05.445Z,0
2018-01-22T03:32:05.415Z,0
2018-01-22T03:33:05.419Z,0
2018-01-22T03:34:05.395Z,0
2018-01-22T03:35:05.638Z,0
2018-01-22T03:36:05.646Z,0
2018-01-22T03:37:05.632Z,0
2018-01-22T03:38:05.031Z,0
2018-01-22T03:39:05.552Z,0
2018-01-22T03:40:04.989Z,0
2018-01-22T03:41:05.250Z,0
2018-01-22T03:42:05.509Z,0
2018-01-22T03:43:05.203Z,0
2018-01-22T03:44:05.201Z,0
2018-01-22T03:45:05.754Z,0
2018-01-22T03:46:05.143Z,0
2018-01-22T03:47:05.130Z,0
2018-01-22T03:48:04.832Z,0
2018-01-22T03:49:05.616Z,0
2018-01-22T03:50:05.063Z,0
2018-01-22T03:51:04.771Z,0
2018-01-22T03:52:05.028Z,0
2018-01-22T03:53:04.730Z,0
2018-01-22T03:54:04.709Z,0
2018-01-22T03:55:04.982Z,0
2018-01-22T03:56:04.939Z,0
2018-01-22T03:57:04.938Z,0
2018-01-22T03:58:04.924Z,0
2018-01-22T03:59:04.611Z,0
2018-01-22T04:00:04.620Z,0
2018-01-22T04:01:04.866Z,0
2018-01-22T04:02:04.561Z,0
2018-01-22T04:03:04.837Z,0
2018-01-22T04:04:05.383Z,0
2018-01-22T04:05:04.507Z,0
2018-01-22T04:06:04.745Z,0
2018-01-22T04:07:04.458Z,0
2018-01-22T04:08:04.703Z,0
2018-01-22T04:09:04.411Z,0
2018-01-22T04:10:04.941Z,0
2018-01-22T04:11:04.651Z,0
2018-01-22T04:12:04.903Z,0
2018-01-22T04:13:04.608Z,0
2018-01-22T04:14:04.878Z,0
2018-01-22T04:15:04.600Z,0
2018-01-22T04:16:04.272Z,0
2018-01-22T04:17:04.255Z,0
2018-01-22T04:18:04.778Z,0
2018-01-22T04:19:04.787Z,0
2018-01-22T04:20:04.466Z,0
2018-01-22T04:21:04.206Z,0
2018-01-22T04:22:04.154Z,0
2018-01-22T04:23:04.145Z,0
2018-01-22T04:24:04.395Z,0
2018-01-22T04:25:04.095Z,0
2018-01-22T04:26:04.074Z,0
2018-01-22T04:27:04.055Z,0
2018-01-22T04:28:04.049Z,0
2018-01-22T04:29:04.059Z,0
2018-01-22T04:30:04.000Z,0
2018-01-22T04:31:03.978Z,0
2018-01-22T04:32:03.968Z,0
2018-01-22T04:33:04.206Z,0
2018-01-22T04:34:04.478Z,0
2018-01-22T04:35:04.441Z,0
2018-01-22T04:36:04.693Z,0
2018-01-22T04:37:04.139Z,0
2018-01-22T04:38:04.378Z,0
2018-01-22T04:39:04.094Z,0
2018-01-22T04:40:04.366Z,0
2018-01-22T04:41:04.329Z,0
2018-01-22T04:42:03.771Z,0
2018-01-22T04:43:04.008Z,0
2018-01-22T04:44:03.718Z,0
2018-01-22T04:45:03.985Z,0
2018-01-22T04:46:04.227Z,0
2018-01-22T04:47:03.931Z,0
2018-01-22T04:48:04.453Z,0
2018-01-22T04:49:03.618Z,0
2018-01-22T04:50:03.873Z,0
2018-01-22T04:51:03.865Z,0
2018-01-22T04:52:03.832Z,0
2018-01-22T04:53:03.563Z,0
2018-01-22T04:54:04.061Z,0
2018-01-22T04:55:03.500Z,0
2018-01-22T04:56:04.021Z,0
2018-01-22T04:57:04.267Z,0
2018-01-22T04:58:03.977Z,0
2018-01-22T04:59:03.419Z,0
2018-01-22T05:00:03.400Z,0
2018-01-22T05:01:03.648Z,0
2018-01-22T05:02:03.364Z,0
2018-01-22T05:03:03.341Z,0
2018-01-22T05:04:04.142Z,0
2018-01-22T05:05:03.840Z,0
2018-01-22T05:06:03.548Z,0
2018-01-22T05:07:03.807Z,0
2018-01-22T05:08:03.255Z,0
2018-01-22T05:09:03.270Z,0
2018-01-22T05:10:03.746Z,0
2018-01-22T05:11:03.180Z,0
2018-01-22T05:12:03.181Z,0
2018-01-22T05:13:03.429Z,0
2018-01-22T05:14:03.403Z,0
2018-01-22T05:15:03.103Z,0
2018-01-22T05:16:03.081Z,0
2018-01-22T05:17:03.600Z,0
2018-01-22T05:18:03.601Z,0
2018-01-22T05:19:03.298Z,0
2018-01-22T05:20:03.548Z,0
2018-01-22T05:21:03.251Z,0
2018-01-22T05:22:03.235Z,0
2018-01-22T05:23:03.214Z,0
2018-01-22T05:24:03.190Z,0
2018-01-22T05:25:02.913Z,0
2018-01-22T05:26:02.891Z,0
2018-01-22T05:27:02.873Z,0
2018-01-22T05:28:03.133Z,0
2018-01-22T05:29:03.393Z,0
2018-01-22T05:30:03.090Z,0
2018-01-22T05:31:03.334Z,0
2018-01-22T05:32:02.766Z,0
2018-01-22T05:33:03.014Z,0
2018-01-22T05:34:02.744Z,0
2018-01-22T05:35:02.716Z,0
2018-01-22T05:36:03.225Z,0
2018-01-22T05:37:03.477Z,0
2018-01-22T05:38:02.934Z,0
2018-01-22T05:39:03.195Z,0
2018-01-22T05:40:02.882Z,0
2018-01-22T05:41:02.583Z,0
2018-01-22T05:42:02.836Z,0
2018-01-22T05:43:02.818Z,0
2018-01-22T05:44:02.529Z,0
2018-01-22T05:45:02.508Z,0
2018-01-22T05:46:02.497Z,0
2018-01-22T05:47:02.476Z,0
2018-01-22T05:48:02.737Z,0
2018-01-22T05:49:02.693Z,0
2018-01-22T05:50:02.957Z,0
2018-01-22T05:51:02.698Z,0
2018-01-22T05:52:02.904Z,0
2018-01-22T05:53:02.613Z,0
2018-01-22T05:54:02.346Z,0
2018-01-22T05:55:02.870Z,0
2018-01-22T05:56:02.832Z,0
2018-01-22T05:57:02.268Z,0
2018-01-22T05:58:02.536Z,0
2018-01-22T05:59:02.235Z,0
2018-01-22T06:00:02.506Z,0
2018-01-22T06:01:02.485Z,0
2018-01-22T06:02:02.443Z,0
2018-01-22T06:03:02.961Z,0
2018-01-22T06:04:02.401Z,0
2018-01-22T06:05:02.380Z,0
2018-01-22T06:06:02.642Z,0
2018-01-22T06:07:02.081Z,0
2018-01-22T06:08:02.051Z,0
2018-01-22T06:09:02.303Z,0
2018-01-22T06:10:02.284Z,0
2018-01-22T06:11:01.990Z,0
2018-01-22T06:12:02.019Z,0
2018-01-22T06:13:01.949Z,0
2018-01-22T06:14:01.960Z,0
2018-01-22T06:15:02.272Z,0
2018-01-22T06:16:02.468Z,0
2018-01-22T06:17:02.139Z,0
2018-01-22T06:18:01.869Z,0
2018-01-22T06:19:02.102Z,0
2018-01-22T06:20:02.100Z,0
2018-01-22T06:21:02.332Z,0
2018-01-22T06:22:02.312Z,0
2018-01-22T06:23:02.048Z,0
2018-01-22T06:24:02.040Z,0
2018-01-22T06:25:01.982Z,0
2018-01-22T06:26:01.959Z,0
2018-01-22T06:27:01.670Z,0
2018-01-22T06:28:01.942Z,4
2018-01-22T06:29:02.182Z,4
2018-01-22T06:30:01.897Z,0
2018-01-22T06:31:01.861Z,4
2018-01-22T06:32:01.839Z,4
2018-01-22T06:33:01.821Z,4
2018-01-22T06:34:01.801Z,4
2018-01-22T06:35:01.785Z,4
2018-01-22T06:36:01.761Z,8
2018-01-22T06:37:02.010Z,8
2018-01-22T06:38:01.453Z,12
2018-01-22T06:39:01.997Z,12
2018-01-22T06:40:01.684Z,12
2018-01-22T06:41:01.396Z,16
2018-01-22T06:42:01.374Z,12
2018-01-22T06:43:01.401Z,16
2018-01-22T06:44:01.349Z,20
2018-01-22T06:45:01.584Z,20
2018-01-22T06:46:01.568Z,24
2018-01-22T06:47:01.815Z,32
2018-01-22T06:48:01.527Z,32
2018-01-22T06:49:01.519Z,40
2018-01-22T06:50:01.519Z,48
2018-01-22T06:51:01.738Z,52
2018-01-22T06:52:01.464Z,60
2018-01-22T06:53:01.161Z,72
2018-01-22T06:54:01.416Z,76
2018-01-22T06:55:01.439Z,84
2018-01-22T06:56:01.098Z,84
2018-01-22T06:57:01.095Z,92
2018-01-22T06:58:01.053Z,92
2018-01-22T06:59:01.305Z,100
2018-01-22T07:00:01.287Z,104
2018-01-22T07:01:01.284Z,112
2018-01-22T07:02:01.249Z,112
2018-01-22T07:03:01.229Z,120
2018-01-22T07:04:01.207Z,128
2018-01-22T07:05:00.924Z,136
2018-01-22T07:06:00.896Z,144
2018-01-22T07:07:00.875Z,156
2018-01-22T07:08:01.394Z,168
2018-01-22T07:09:01.376Z,192
2018-01-22T07:10:01.388Z,212
2018-01-22T07:11:01.089Z,228
2018-01-22T07:12:01.045Z,244
2018-01-22T07:13:00.768Z,256
2018-01-22T07:14:01.284Z,272
2018-01-22T07:15:00.996Z,284
2018-01-22T07:16:01.262Z,304
2018-01-22T07:17:00.698Z,320
2018-01-22T07:18:00.932Z,340
2018-01-22T07:19:00.959Z,348
2018-01-22T07:20:01.190Z,360
2018-01-22T07:21:00.882Z,376
2018-01-22T07:22:00.858Z,400
2018-01-22T07:23:00.564Z,420
2018-01-22T07:24:00.816Z,436
2018-01-22T07:25:00.822Z,456
2018-01-22T07:26:00.502Z,480
2018-01-22T07:27:00.487Z,512
2018-01-22T07:28:00.466Z,552
2018-01-22T07:29:00.467Z,588
2018-01-22T07:30:00.743Z,624
2018-01-22T07:31:00.958Z,648
2018-01-22T07:32:00.930Z,680
2018-01-22T07:33:00.637Z,720
2018-01-22T07:34:00.347Z,760
2018-01-22T07:35:00.597Z,788
2018-01-22T07:36:00.579Z,796
2018-01-22T07:37:00.582Z,784
2018-01-22T07:38:00.584Z,800
2018-01-22T07:39:00.246Z,800
2018-01-22T07:40:00.791Z,740
2018-01-22T07:41:00.824Z,696
2018-01-22T07:42:00.460Z,696
2018-01-22T07:43:00.440Z,680
2018-01-22T07:44:00.153Z,676
2018-01-22T07:45:00.421Z,676
2018-01-22T07:46:00.385Z,676
2018-01-22T07:47:00.402Z,652
2018-01-22T07:48:00.619Z,616
2018-01-22T07:49:00.323Z,596
2018-01-22T07:50:00.045Z,588
2018-01-22T07:51:00.285Z,564
2018-01-22T07:51:59.993Z,560
2018-01-22T07:53:00.242Z,620
2018-01-22T07:54:00.539Z,668
2018-01-22T07:55:00.205Z,720
2018-01-22T07:56:00.201Z,772
2018-01-22T07:57:00.479Z,804
2018-01-22T07:58:00.141Z,828
2018-01-22T07:59:00.393Z,840
2018-01-22T08:00:00.111Z,904
2018-01-22T08:01:00.108Z,1040
2018-01-22T08:02:00.338Z,1128
2018-01-22T08:02:59.786Z,1172
2018-01-22T08:04:00.316Z,1192
2018-01-22T08:05:00.036Z,1180
2018-01-22T08:06:00.260Z,1144
2018-01-22T08:06:59.695Z,1132
2018-01-22T08:07:59.950Z,1172
2018-01-22T08:08:59.931Z,1252
2018-01-22T08:09:59.906Z,1376
2018-01-22T08:10:59.618Z,1472
2018-01-22T08:11:59.601Z,1540
2018-01-22T08:12:59.871Z,1588
2018-01-22T08:14:00.107Z,1672
2018-01-22T08:14:59.809Z,1744
2018-01-22T08:15:59.536Z,1744
2018-01-22T08:17:00.044Z,1704
2018-01-22T08:18:00.032Z,1636
2018-01-22T08:18:59.748Z,1592
2018-01-22T08:19:59.444Z,1580
2018-01-22T08:20:59.692Z,1596
2018-01-22T08:21:59.697Z,1664
2018-01-22T08:22:59.384Z,1828
2018-01-22T08:23:59.641Z,2044
2018-01-22T08:24:59.643Z,2268
2018-01-22T08:25:59.601Z,2292
2018-01-22T08:26:59.306Z,2144
2018-01-22T08:27:59.562Z,1912
2018-01-22T08:28:59.813Z,1692
2018-01-22T08:29:59.720Z,1508
2018-01-22T08:30:59.531Z,1476
2018-01-22T08:31:59.482Z,1500
2018-01-22T08:32:59.485Z,1596
2018-01-22T08:33:59.448Z,1804
2018-01-22T08:34:59.419Z,2088
2018-01-22T08:35:59.145Z,2380
2018-01-22T08:36:59.663Z,2684
2018-01-22T08:37:59.094Z,3084
2018-01-22T08:38:59.366Z,3120
2018-01-22T08:39:59.058Z,2912
2018-01-22T08:40:59.066Z,2656
2018-01-22T08:41:59.160Z,2404
2018-01-22T08:42:59.278Z,2232
2018-01-22T08:43:58.980Z,2176
2018-01-22T08:44:59.257Z,2188
2018-01-22T08:45:59.765Z,2224
2018-01-22T08:46:59.212Z,2244
2018-01-22T08:47:58.900Z,2228
2018-01-22T08:48:59.153Z,2196
2018-01-22T08:49:59.157Z,2188
2018-01-22T08:50:59.660Z,2192
2018-01-22T08:51:59.091Z,2168
2018-01-22T08:52:59.088Z,2156
2018-01-22T08:53:58.787Z,2140
2018-01-22T08:54:59.036Z,2240
2018-01-22T08:55:59.310Z,2428
2018-01-22T08:56:59.013Z,2656
2018-01-22T08:57:58.985Z,2864
2018-01-22T08:58:58.960Z,3016
2018-01-22T08:59:58.982Z,3104
2018-01-22T09:00:58.932Z,3208
2018-01-22T09:01:59.173Z,3360
2018-01-22T09:02:58.639Z,3468
2018-01-22T09:03:58.597Z,3480
2018-01-22T09:04:58.594Z,3384
2018-01-22T09:05:59.101Z,3132
2018-01-22T09:06:58.536Z,3028
2018-01-22T09:07:58.519Z,2824
2018-01-22T09:08:58.501Z,2624
2018-01-22T09:09:58.749Z,2580
2018-01-22T09:10:59.029Z,2604
2018-01-22T09:11:58.740Z,2592
2018-01-22T09:12:59.240Z,2572
2018-01-22T09:13:58.403Z,2616
2018-01-22T09:14:58.656Z,2732
2018-01-22T09:15:58.389Z,2936
2018-01-22T09:16:58.904Z,3180
2018-01-22T09:17:58.329Z,3308
2018-01-22T09:18:58.634Z,3204
2018-01-22T09:19:58.293Z,3160
2018-01-22T09:20:58.543Z,3268
2018-01-22T09:21:58.814Z,3480
2018-01-22T09:22:58.255Z,3592
2018-01-22T09:23:58.505Z,3624
2018-01-22T09:24:58.467Z,3704
2018-01-22T09:25:58.478Z,3892
2018-01-22T09:26:58.996Z,4100
2018-01-22T09:27:58.681Z,4196
2018-01-22T09:28:58.140Z,3996
2018-01-22T09:29:58.127Z,3628
2018-01-22T09:30:58.357Z,3316
2018-01-22T09:31:58.089Z,3128
2018-01-22T09:32:58.046Z,2992
2018-01-22T09:33:58.302Z,2888
2018-01-22T09:34:58.016Z,2788
2018-01-22T09:35:58.539Z,2704
2018-01-22T09:36:58.341Z,2608
2018-01-22T09:37:58.237Z,2616
2018-01-22T09:38:58.210Z,2664
2018-01-22T09:39:58.471Z,2816
2018-01-22T09:40:58.169Z,2932
2018-01-22T09:41:58.152Z,3040
2018-01-22T09:42:58.424Z,3056
2018-01-22T09:43:58.383Z,3184
2018-01-22T09:44:58.378Z,3396
2018-01-22T09:45:57.817Z,3556
2018-01-22T09:46:58.059Z,3716
2018-01-22T09:47:58.045Z,3892
2018-01-22T09:48:58.022Z,3876
2018-01-22T09:49:58.003Z,3680
2018-01-22T09:50:57.716Z,3496
2018-01-22T09:51:57.692Z,3656
2018-01-22T09:52:57.692Z,3928
2018-01-22T09:53:57.929Z,4084
2018-01-22T09:54:57.912Z,3904
2018-01-22T09:55:57.632Z,3624
2018-01-22T09:56:57.884Z,3560
2018-01-22T09:57:58.402Z,3652
2018-01-22T09:58:58.106Z,3780
2018-01-22T09:59:57.819Z,4036
2018-01-22T10:00:57.801Z,4228
2018-01-22T10:01:57.785Z,4324
2018-01-22T10:02:57.533Z,4420
2018-01-22T10:03:58.034Z,4468
2018-01-22T10:04:57.991Z,4272
2018-01-22T10:05:57.727Z,3904
2018-01-22T10:06:57.433Z,3708
2018-01-22T10:07:57.395Z,3708
2018-01-22T10:08:57.665Z,3544
2018-01-22T10:09:57.925Z,3368
2018-01-22T10:10:57.619Z,3304
2018-01-22T10:11:57.323Z,3292
2018-01-22T10:12:57.582Z,3380
2018-01-22T10:13:57.314Z,3644
2018-01-22T10:14:57.543Z,3760
2018-01-22T10:15:57.819Z,4132
2018-01-22T10:16:57.507Z,4432
2018-01-22T10:17:57.534Z,4648
2018-01-22T10:18:57.472Z,5000
2018-01-22T10:19:57.206Z,5040
2018-01-22T10:20:57.731Z,4896
2018-01-22T10:21:57.688Z,4524
2018-01-22T10:22:57.666Z,4256
2018-01-22T10:23:57.945Z,4092
2018-01-22T10:24:57.361Z,3920
2018-01-22T10:25:57.613Z,3728
2018-01-22T10:26:57.321Z,3552
2018-01-22T10:27:57.581Z,3520
2018-01-22T10:28:57.319Z,3408
2018-01-22T10:29:57.272Z,3272
2018-01-22T10:30:57.249Z,3144
2018-01-22T10:31:57.525Z,3068
2018-01-22T10:32:56.974Z,3036
2018-01-22T10:33:56.926Z,3136
2018-01-22T10:34:57.203Z,3240
2018-01-22T10:35:57.457Z,3352
2018-01-22T10:36:57.420Z,3412
2018-01-22T10:37:57.407Z,3480
2018-01-22T10:38:57.110Z,3484
2018-01-22T10:39:57.368Z,3380
2018-01-22T10:40:56.800Z,3232
2018-01-22T10:41:57.050Z,3156
2018-01-22T10:42:57.343Z,3196
2018-01-22T10:43:57.064Z,3264
2018-01-22T10:44:56.741Z,3316
2018-01-22T10:45:57.251Z,3256
2018-01-22T10:46:56.692Z,3376
2018-01-22T10:47:56.956Z,3372
2018-01-22T10:48:56.927Z,3232
2018-01-22T10:49:57.182Z,3236
2018-01-22T10:50:56.620Z,3352
2018-01-22T10:51:57.143Z,3688
2018-01-22T10:52:56.858Z,4084
2018-01-22T10:53:56.585Z,4140
2018-01-22T10:54:57.313Z,4144
2018-01-22T10:55:56.810Z,4036
2018-01-22T10:56:56.789Z,3900
2018-01-22T10:57:56.526Z,3868
2018-01-22T10:58:56.767Z,3876
2018-01-22T10:59:57.031Z,3876
2018-01-22T11:00:56.724Z,3884
2018-01-22T11:01:57.239Z,3776
2018-01-22T11:02:56.947Z,3848
2018-01-22T11:03:56.661Z,3956
2018-01-22T11:04:56.655Z,4136
2018-01-22T11:05:56.621Z,4332
2018-01-22T11:06:56.331Z,4436
2018-01-22T11:07:56.605Z,4416
2018-01-22T11:08:56.297Z,4336
2018-01-22T11:09:56.821Z,4148
2018-01-22T11:10:56.277Z,4272
2018-01-22T11:11:56.812Z,4208
2018-01-22T11:12:56.497Z,4224
2018-01-22T11:13:56.210Z,3992
2018-01-22T11:14:56.223Z,3920
2018-01-22T11:15:56.442Z,4180
2018-01-22T11:16:56.455Z,4580
2018-01-22T11:17:56.677Z,4708
2018-01-22T11:18:56.119Z,4732
2018-01-22T11:19:56.373Z,4696
2018-01-22T11:20:56.354Z,4864
2018-01-22T11:21:56.359Z,5108
2018-01-22T11:22:56.053Z,5060
2018-01-22T11:23:56.055Z,5620
2018-01-22T11:24:56.299Z,5892
2018-01-22T11:25:56.284Z,5532
2018-01-22T11:26:55.977Z,4956
2018-01-22T11:27:55.962Z,4468
2018-01-22T11:28:56.495Z,4216
2018-01-22T11:29:55.933Z,4104
2018-01-22T11:30:56.201Z,3992
2018-01-22T11:31:56.167Z,4008
2018-01-22T11:32:56.427Z,3892
2018-01-22T11:33:56.146Z,3740
2018-01-22T11:34:55.852Z,3620
2018-01-22T11:35:56.099Z,3620
2018-01-22T11:36:55.815Z,3724
2018-01-22T11:37:56.333Z,3772
2018-01-22T11:38:56.041Z,3852
2018-01-22T11:39:56.567Z,3844
2018-01-22T11:40:55.736Z,3704
2018-01-22T11:41:56.266Z,3544
2018-01-22T11:42:55.718Z,3532
2018-01-22T11:43:55.978Z,3720
2018-01-22T11:44:55.674Z,4040
2018-01-22T11:45:56.191Z,4228
2018-01-22T11:46:55.904Z,4304
2018-01-22T11:47:55.890Z,4568
2018-01-22T11:48:56.184Z,4696
2018-01-22T11:49:55.863Z,4620
2018-01-22T11:50:56.379Z,4436
2018-01-22T11:51:55.831Z,4368
2018-01-22T11:52:56.076Z,4420
2018-01-22T11:53:56.052Z,4196
2018-01-22T11:54:55.766Z,3768
2018-01-22T11:55:55.757Z,3468
2018-01-22T11:56:55.744Z,3372
2018-01-22T11:57:55.711Z,3408
2018-01-22T11:58:55.724Z,3416
2018-01-22T11:59:55.411Z,3456
2018-01-22T12:00:55.684Z,3588
2018-01-22T12:01:55.372Z,3708
2018-01-22T12:02:55.361Z,4020
2018-01-22T12:03:55.621Z,4320
2018-01-22T12:04:55.590Z,4416
2018-01-22T12:05:55.329Z,4376
2018-01-22T12:06:55.828Z,4408
2018-01-22T12:07:55.542Z,4644
2018-01-22T12:08:55.519Z,5000
2018-01-22T12:09:55.500Z,5116
2018-01-22T12:10:55.212Z,5424
2018-01-22T12:11:55.194Z,5632
2018-01-22T12:12:55.447Z,5756
2018-01-22T12:13:55.160Z,5728
2018-01-22T12:14:55.682Z,5976
2018-01-22T12:15:55.672Z,6080
2018-01-22T12:16:55.105Z,6500
2018-01-22T12:17:55.109Z,6528
2018-01-22T12:18:55.372Z,6508
2018-01-22T12:19:55.324Z,6624
2018-01-22T12:20:55.578Z,6332
2018-01-22T12:21:55.293Z,5588
2018-01-22T12:22:55.280Z,5656
2018-01-22T12:23:54.985Z,6004
2018-01-22T12:24:54.991Z,5816
2018-01-22T12:25:55.497Z,5864
2018-01-22T12:26:54.934Z,6128
2018-01-22T12:27:54.930Z,6248
2018-01-22T12:28:55.186Z,6192
2018-01-22T12:29:54.881Z,6384
2018-01-22T12:30:55.411Z,6304
2018-01-22T12:31:55.126Z,6176
2018-01-22T12:32:55.100Z,7180
2018-01-22T12:33:55.357Z,7692
2018-01-22T12:34:55.071Z,7720
2018-01-22T12:35:55.334Z,7712
2018-01-22T12:36:55.033Z,7572
2018-01-22T12:37:55.026Z,7292
2018-01-22T12:38:54.997Z,7772
2018-01-22T12:39:54.985Z,7368
2018-01-22T12:40:55.258Z,6980
2018-01-22T12:41:54.959Z,6856
2018-01-22T12:42:54.655Z,6828
2018-01-22T12:43:54.916Z,7020
2018-01-22T12:44:54.727Z,6840
2018-01-22T12:45:55.376Z,6868
2018-01-22T12:46:54.592Z,7012
2018-01-22T12:47:54.575Z,6952
2018-01-22T12:48:54.560Z,6692
2018-01-22T12:49:54.543Z,6548
2018-01-22T12:50:54.535Z,6068
2018-01-22T12:51:54.777Z,5584
2018-01-22T12:52:54.506Z,5004
2018-01-22T12:53:54.743Z,4536
2018-01-22T12:54:54.735Z,4292
2018-01-22T12:55:54.735Z,4100
2018-01-22T12:56:55.243Z,3904
2018-01-22T12:57:54.689Z,3588
2018-01-22T12:58:54.659Z,3196
2018-01-22T12:59:54.655Z,2840
2018-01-22T13:00:55.166Z,2664
2018-01-22T13:01:54.339Z,2672
2018-01-22T13:02:54.597Z,2880
2018-01-22T13:03:54.573Z,2928
2018-01-22T13:04:54.580Z,3020
2018-01-22T13:05:55.095Z,3056
2018-01-22T13:06:54.520Z,2984
2018-01-22T13:07:54.775Z,2992
2018-01-22T13:08:54.574Z,3220
2018-01-22T13:09:54.196Z,3068
2018-01-22T13:10:54.737Z,2992
2018-01-22T13:11:54.437Z,3228
2018-01-22T13:12:54.145Z,3232
2018-01-22T13:13:54.400Z,2856
2018-01-22T13:14:54.661Z,2740
2018-01-22T13:15:54.639Z,2580
2018-01-22T13:16:54.617Z,2508
2018-01-22T13:17:54.410Z,2556
2018-01-22T13:18:54.047Z,2708
2018-01-22T13:19:54.031Z,2960
2018-01-22T13:20:54.274Z,3200
2018-01-22T13:21:54.005Z,3208
2018-01-22T13:22:54.241Z,3276
2018-01-22T13:23:54.219Z,3368
2018-01-22T13:24:54.201Z,3248
2018-01-22T13:25:53.932Z,3128
2018-01-22T13:26:54.170Z,2884
2018-01-22T13:27:54.440Z,2828
2018-01-22T13:28:54.131Z,3060
2018-01-22T13:29:54.112Z,3236
2018-01-22T13:30:54.367Z,3340
2018-01-22T13:31:54.140Z,3408
2018-01-22T13:32:54.065Z,3340
2018-01-22T13:33:54.326Z,3340
2018-01-22T13:34:54.048Z,3192
2018-01-22T13:35:54.023Z,3424
2018-01-22T13:36:54.540Z,3504
2018-01-22T13:37:54.280Z,3536
2018-01-22T13:38:53.689Z,3536
2018-01-22T13:39:53.968Z,3492
2018-01-22T13:40:53.945Z,3108
2018-01-22T13:41:53.922Z,2920
2018-01-22T13:42:53.883Z,2808
2018-01-22T13:43:53.876Z,2736
2018-01-22T13:44:53.577Z,2516
2018-01-22T13:45:53.839Z,2852
2018-01-22T13:46:53.542Z,2680
2018-01-22T13:47:53.555Z,2828
2018-01-22T13:48:53.504Z,3004
2018-01-22T13:49:53.765Z,2920
2018-01-22T13:50:54.034Z,2572
2018-01-22T13:51:53.451Z,2384
2018-01-22T13:52:53.433Z,2736
2018-01-22T13:53:53.960Z,2760
2018-01-22T13:54:53.399Z,2928
2018-01-22T13:55:53.921Z,3072
2018-01-22T13:56:53.635Z,3164
2018-01-22T13:57:53.618Z,2972
2018-01-22T13:58:53.618Z,2888
2018-01-22T13:59:53.583Z,2708
2018-01-22T14:00:53.584Z,2464